Portada
METAR-TAF:

METAR-TAF

Aeroports :

Sapporo, Japó

latitud: 43-07N, longitud: 141-23E, altitud: 8 m

Observació

L'informe es va fer fa 38 minuts, a les 10:00 UTC
Vent 13 kt del Sud-Est
Temperatura 12°C
Humitat 50%
Pressió 1008 hPa
Visibilitat 10 km o més
Escasses núvols a una alçada de 4000 ft
Cel ennuvolat a una alçada de 17000 ft

METAR: RJCO 181000Z 14013KT 9999 FEW040 BKN170 12/02 Q1008

Hora: 19:38 (10:38 UTC)


TAF: manca

Observacions i pronòstics meteorològics de més de 4000 aeroports (METAR i TAF).

Les estacions disponibles són els punts grocs i vermells al mapa.

Posi el ratolí al punt desitjat per veure el nom de l'estació.

Feu clic per veure les observacions i els pronòstics meteorològics.

Per canviar el mapa: feu clic els botons verds amb una creu de color negre per apropar; al botó verd amb un guió per allunyar la imatge; o en les fletxes verdes per a mapes adjacents.


METAR-TAF: